createdAt,value
2023-01-29T00:00:18.028Z,0.92
2023-01-29T00:01:17.454Z,0.91
2023-01-29T00:02:17.581Z,0.92
2023-01-29T00:03:17.469Z,0.92
2023-01-29T00:04:17.573Z,0.91
2023-01-29T00:05:27.519Z,0.90
2023-01-29T00:06:18.394Z,0.87
2023-01-29T00:07:17.485Z,0.85
2023-01-29T00:08:17.364Z,0.83
2023-01-29T00:09:17.528Z,0.83
2023-01-29T00:10:17.720Z,0.84
2023-01-29T00:11:20.700Z,0.87
2023-01-29T00:12:17.322Z,0.89
2023-01-29T00:13:17.385Z,0.91
2023-01-29T00:14:17.291Z,0.91
2023-01-29T00:15:17.312Z,0.90
2023-01-29T00:16:17.283Z,0.90
2023-01-29T00:18:28.170Z,0.27
2023-01-29T00:19:27.962Z,0.27
2023-01-29T00:20:30.090Z,0.51
2023-01-29T00:21:27.953Z,0.65
2023-01-29T00:22:28.038Z,0.72
2023-01-29T00:23:27.912Z,0.76
2023-01-29T00:24:28.127Z,0.78
2023-01-29T00:25:27.899Z,0.80
2023-01-29T00:26:29.045Z,0.81
2023-01-29T00:27:27.884Z,0.82
2023-01-29T00:28:27.944Z,0.81
2023-01-29T00:29:27.829Z,0.82
2023-01-29T00:30:27.882Z,0.82
2023-01-29T00:31:27.940Z,0.81
2023-01-29T00:32:50.899Z,0.79
2023-01-29T00:33:27.836Z,0.78
2023-01-29T00:34:27.950Z,0.80
2023-01-29T00:35:27.760Z,0.80
2023-01-29T00:36:27.893Z,0.81
2023-01-29T00:37:27.730Z,0.85
2023-01-29T00:38:27.768Z,0.87
2023-01-29T00:39:33.746Z,0.88
2023-01-29T00:40:28.697Z,0.85
2023-01-29T00:41:27.823Z,0.82
2023-01-29T00:42:27.657Z,0.79
2023-01-29T00:43:27.732Z,0.77
2023-01-29T00:44:27.649Z,0.74
2023-01-29T00:45:27.689Z,0.73
2023-01-29T00:46:27.641Z,0.70
2023-01-29T00:47:27.736Z,0.68
2023-01-29T00:48:27.577Z,0.65
2023-01-29T00:49:27.767Z,0.63
2023-01-29T00:50:27.580Z,0.62
2023-01-29T00:51:27.603Z,0.62
2023-01-29T00:52:27.546Z,0.60
2023-01-29T00:53:27.603Z,0.59
2023-01-29T00:54:27.498Z,0.57
2023-01-29T00:55:27.585Z,0.57
2023-01-29T00:56:27.487Z,0.57
2023-01-29T00:57:27.618Z,0.57
2023-01-29T00:58:27.445Z,0.57
2023-01-29T00:59:27.635Z,0.56
2023-01-29T01:00:27.427Z,0.55
2023-01-29T01:01:27.474Z,0.56
2023-01-29T01:02:27.418Z,0.55
2023-01-29T01:03:27.476Z,0.55
2023-01-29T01:04:27.365Z,0.54
2023-01-29T01:05:27.444Z,0.54
2023-01-29T01:06:27.345Z,0.53
2023-01-29T01:07:28.504Z,0.57
2023-01-29T01:08:27.338Z,0.62
2023-01-29T01:09:27.414Z,0.64
2023-01-29T01:10:27.293Z,0.63
2023-01-29T01:11:27.353Z,0.60
2023-01-29T01:12:27.264Z,0.57
2023-01-29T01:13:27.332Z,0.53
2023-01-29T01:14:27.254Z,0.51
2023-01-29T01:15:27.321Z,0.51
2023-01-29T01:16:27.256Z,0.52
2023-01-29T01:17:27.354Z,0.51
2023-01-29T01:18:27.190Z,0.49
2023-01-29T01:19:27.293Z,0.48
2023-01-29T01:20:27.172Z,0.50
2023-01-29T01:21:28.243Z,0.50
2023-01-29T01:22:27.132Z,0.47
2023-01-29T01:23:27.209Z,0.48
2023-01-29T01:24:27.142Z,0.49
2023-01-29T01:25:27.197Z,0.47
2023-01-29T01:26:27.092Z,0.45
2023-01-29T01:27:27.241Z,0.41
2023-01-29T01:28:27.051Z,0.39
2023-01-29T01:29:27.168Z,0.38
2023-01-29T01:30:27.065Z,0.40
2023-01-29T01:31:29.251Z,0.43
2023-01-29T01:32:27.013Z,0.44
2023-01-29T01:33:27.074Z,0.43
2023-01-29T01:34:26.974Z,0.39
2023-01-29T01:35:29.172Z,0.35
2023-01-29T01:36:26.955Z,0.32
2023-01-29T01:37:27.022Z,0.31
2023-01-29T01:38:26.960Z,0.32
2023-01-29T01:39:27.046Z,0.35
2023-01-29T01:40:26.908Z,0.34
2023-01-29T01:41:47.960Z,0.31
2023-01-29T01:42:26.869Z,0.28
2023-01-29T01:43:26.941Z,0.29
2023-01-29T01:44:26.859Z,0.32
2023-01-29T01:45:27.000Z,0.32
2023-01-29T01:46:26.818Z,0.34
2023-01-29T01:47:26.883Z,0.35
2023-01-29T01:48:26.787Z,0.35
2023-01-29T01:49:26.917Z,0.32
2023-01-29T01:50:26.777Z,0.30
2023-01-29T01:51:26.855Z,0.31
2023-01-29T01:52:26.737Z,0.31
2023-01-29T01:53:28.814Z,0.31
2023-01-29T01:54:26.708Z,0.29
2023-01-29T01:55:26.829Z,0.29
2023-01-29T01:56:26.710Z,0.31
2023-01-29T01:57:26.764Z,0.31
2023-01-29T01:58:26.660Z,0.31
2023-01-29T01:59:26.798Z,0.32
2023-01-29T02:00:26.629Z,0.32
2023-01-29T02:01:26.804Z,0.31
2023-01-29T02:02:26.664Z,0.31
2023-01-29T02:03:26.779Z,0.28
2023-01-29T02:04:26.597Z,0.27
2023-01-29T02:05:26.603Z,0.28
2023-01-29T02:06:26.560Z,0.29
2023-01-29T02:07:26.634Z,0.29
2023-01-29T02:08:26.545Z,0.29
2023-01-29T02:09:26.675Z,0.29
2023-01-29T02:10:26.512Z,0.29
2023-01-29T02:11:26.605Z,0.28
2023-01-29T02:12:26.488Z,0.26
2023-01-29T02:13:26.656Z,0.25
2023-01-29T02:14:26.469Z,0.23
2023-01-29T02:15:47.466Z,0.22
2023-01-29T02:16:26.447Z,0.21
2023-01-29T02:17:26.556Z,0.20
2023-01-29T02:18:26.393Z,0.19
2023-01-29T02:19:26.552Z,0.19
2023-01-29T02:20:26.383Z,0.19
2023-01-29T02:21:27.503Z,0.20
2023-01-29T02:22:26.343Z,0.22
2023-01-29T02:23:26.423Z,0.23
2023-01-29T02:24:26.367Z,0.23
2023-01-29T02:25:26.353Z,0.22
2023-01-29T02:26:26.310Z,0.22
2023-01-29T02:27:28.481Z,0.24
2023-01-29T02:28:26.272Z,0.27
2023-01-29T02:29:26.434Z,0.28
2023-01-29T02:30:26.249Z,0.27
2023-01-29T02:31:26.437Z,0.26
2023-01-29T02:32:26.221Z,0.26
2023-01-29T02:33:27.315Z,0.26
2023-01-29T02:34:26.181Z,0.22
2023-01-29T02:35:26.229Z,0.20
2023-01-29T02:36:26.150Z,0.16
2023-01-29T02:37:26.265Z,0.14
2023-01-29T02:38:26.145Z,0.13
2023-01-29T02:39:27.230Z,0.12
2023-01-29T02:40:26.100Z,0.09
2023-01-29T02:41:26.282Z,0.07
2023-01-29T02:42:26.088Z,0.07
2023-01-29T02:43:26.196Z,0.07
2023-01-29T02:44:26.082Z,0.10
2023-01-29T02:45:26.099Z,0.12
2023-01-29T02:46:26.021Z,0.13
2023-01-29T02:47:26.139Z,0.14
2023-01-29T02:48:26.026Z,0.14
2023-01-29T02:49:26.183Z,0.13
2023-01-29T02:50:25.987Z,0.13
2023-01-29T02:51:26.008Z,0.16
2023-01-29T02:52:25.941Z,0.17
2023-01-29T02:53:26.062Z,0.17
2023-01-29T02:54:25.970Z,0.16
2023-01-29T02:55:27.008Z,0.16
2023-01-29T02:56:25.905Z,0.15
2023-01-29T02:57:26.021Z,0.14
2023-01-29T02:58:25.870Z,0.15
2023-01-29T02:59:26.060Z,0.17
2023-01-29T03:00:25.837Z,0.17
2023-01-29T03:01:25.972Z,0.17
2023-01-29T03:02:25.877Z,0.15
2023-01-29T03:03:25.946Z,0.13
2023-01-29T03:04:25.790Z,0.11
2023-01-29T03:05:25.856Z,0.09
2023-01-29T03:06:25.757Z,0.07
2023-01-29T03:07:48.876Z,0.06
2023-01-29T03:08:25.730Z,0.06
2023-01-29T03:09:25.722Z,0.07
2023-01-29T03:10:25.794Z,0.08
2023-01-29T03:11:25.697Z,0.10
2023-01-29T03:12:25.836Z,0.11
2023-01-29T03:13:25.704Z,0.10
2023-01-29T03:14:25.765Z,0.08
2023-01-29T03:15:25.643Z,0.07
2023-01-29T03:16:25.847Z,0.09
2023-01-29T03:17:25.615Z,0.10
2023-01-29T03:18:47.691Z,0.10
2023-01-29T03:19:25.585Z,0.10
2023-01-29T03:20:25.677Z,0.08
2023-01-29T03:21:25.565Z,0.06
2023-01-29T03:22:25.713Z,0.05
2023-01-29T03:23:25.549Z,0.06
2023-01-29T03:24:25.645Z,0.05
2023-01-29T03:25:25.513Z,0.04
2023-01-29T03:26:25.575Z,0.04
2023-01-29T03:27:25.483Z,0.05
2023-01-29T03:28:25.633Z,0.06
2023-01-29T03:29:25.452Z,0.06
2023-01-29T03:30:29.792Z,0.05
2023-01-29T03:31:25.501Z,0.03
2023-01-29T03:32:25.583Z,0.01
2023-01-29T03:33:25.412Z,-0.01
2023-01-29T03:34:25.528Z,-0.03
2023-01-29T03:35:25.382Z,-0.06
2023-01-29T03:36:25.501Z,-0.07
2023-01-29T03:37:25.354Z,-0.07
2023-01-29T03:38:25.491Z,-0.05
2023-01-29T03:39:25.322Z,-0.04
2023-01-29T03:40:25.437Z,-0.03
2023-01-29T03:41:25.301Z,-0.02
2023-01-29T03:42:25.413Z,-0.02
2023-01-29T03:43:25.280Z,-0.02
2023-01-29T03:44:25.391Z,0.00
2023-01-29T03:45:25.240Z,0.01
2023-01-29T03:46:25.331Z,0.01
2023-01-29T03:47:25.210Z,0.03
2023-01-29T03:48:25.410Z,0.04
2023-01-29T03:49:25.189Z,0.03
2023-01-29T03:50:25.299Z,0.03
2023-01-29T03:51:25.161Z,0.05
2023-01-29T03:52:25.237Z,0.07
2023-01-29T03:53:25.143Z,0.07
2023-01-29T03:54:25.220Z,0.06
2023-01-29T03:55:25.111Z,0.04
2023-01-29T03:56:25.200Z,0.02
2023-01-29T03:57:25.093Z,-0.01
2023-01-29T03:58:27.251Z,-0.04
2023-01-29T03:59:25.072Z,-0.08
2023-01-29T04:00:25.235Z,-0.12
2023-01-29T04:01:25.053Z,-0.17
2023-01-29T04:02:25.107Z,-0.21
2023-01-29T04:03:25.017Z,-0.23
2023-01-29T04:04:25.202Z,-0.24
2023-01-29T04:05:24.978Z,-0.27
2023-01-29T04:06:25.136Z,-0.28
2023-01-29T04:07:24.953Z,-0.29
2023-01-29T04:08:25.133Z,-0.30
2023-01-29T04:09:24.934Z,-0.33
2023-01-29T04:10:24.959Z,-0.36
2023-01-29T04:11:24.919Z,-0.38
2023-01-29T04:12:25.050Z,-0.39
2023-01-29T04:13:24.900Z,-0.39
2023-01-29T04:14:25.027Z,-0.40
2023-01-29T04:15:24.847Z,-0.42
2023-01-29T04:16:27.084Z,-0.44
2023-01-29T04:17:24.839Z,-0.44
2023-01-29T04:18:24.945Z,-0.44
2023-01-29T04:19:24.792Z,-0.45
2023-01-29T04:20:24.837Z,-0.46
2023-01-29T04:21:24.767Z,-0.45
2023-01-29T04:22:45.835Z,-0.47
2023-01-29T04:23:24.749Z,-0.48
2023-01-29T04:24:24.916Z,-0.48
2023-01-29T04:25:24.757Z,-0.49
2023-01-29T04:26:24.843Z,-0.50
2023-01-29T04:27:24.683Z,-0.50
2023-01-29T04:28:26.753Z,-0.51
2023-01-29T04:29:24.660Z,-0.52
2023-01-29T04:30:24.755Z,-0.53
2023-01-29T04:31:24.745Z,-0.55
2023-01-29T04:32:24.744Z,-0.55
2023-01-29T04:33:24.613Z,-0.53
2023-01-29T04:34:24.783Z,-0.51
2023-01-29T04:35:24.582Z,-0.50
2023-01-29T04:36:24.762Z,-0.50
2023-01-29T04:37:24.553Z,-0.49
2023-01-29T04:38:24.643Z,-0.49
2023-01-29T04:39:24.541Z,-0.48
2023-01-29T04:40:24.579Z,-0.48
2023-01-29T04:41:24.500Z,-0.47
2023-01-29T04:42:24.662Z,-0.46
2023-01-29T04:43:24.533Z,-0.44
2023-01-29T04:44:24.650Z,-0.44
2023-01-29T04:45:24.454Z,-0.44
2023-01-29T04:46:26.685Z,-0.44
2023-01-29T04:47:24.463Z,-0.44
2023-01-29T04:48:24.549Z,-0.46
2023-01-29T04:49:24.400Z,-0.46
2023-01-29T04:50:24.450Z,-0.45
2023-01-29T04:51:24.392Z,-0.44
2023-01-29T04:52:24.491Z,-0.45
2023-01-29T04:53:24.349Z,-0.46
2023-01-29T04:54:24.471Z,-0.43
2023-01-29T04:55:24.319Z,-0.42
2023-01-29T04:56:24.362Z,-0.42
2023-01-29T04:57:24.289Z,-0.43
2023-01-29T04:58:45.383Z,-0.46
2023-01-29T04:59:24.260Z,-0.49
2023-01-29T05:00:24.388Z,-0.51
2023-01-29T05:01:24.252Z,-0.54
2023-01-29T05:02:25.486Z,-0.54
2023-01-29T05:03:24.218Z,-0.55
2023-01-29T05:04:26.397Z,-0.56
2023-01-29T05:05:24.187Z,-0.55
2023-01-29T05:06:24.287Z,-0.54
2023-01-29T05:07:24.158Z,-0.53
2023-01-29T05:08:24.276Z,-0.51
2023-01-29T05:09:24.129Z,-0.49
2023-01-29T05:10:46.207Z,-0.47
2023-01-29T05:11:24.106Z,-0.44
2023-01-29T05:12:24.295Z,-0.43
2023-01-29T05:13:24.089Z,-0.44
2023-01-29T05:14:24.276Z,-0.46
2023-01-29T05:15:24.055Z,-0.46
2023-01-29T05:16:24.147Z,-0.48
2023-01-29T05:17:24.026Z,-0.49
2023-01-29T05:18:24.103Z,-0.50
2023-01-29T05:19:24.002Z,-0.52
2023-01-29T05:20:24.092Z,-0.53
2023-01-29T05:21:23.974Z,-0.54
2023-01-29T05:22:45.102Z,-0.54
2023-01-29T05:23:23.954Z,-0.54
2023-01-29T05:24:24.047Z,-0.52
2023-01-29T05:25:23.922Z,-0.51
2023-01-29T05:26:24.015Z,-0.50
2023-01-29T05:27:23.901Z,-0.51
2023-01-29T05:28:26.021Z,-0.51
2023-01-29T05:29:23.870Z,-0.52
2023-01-29T05:30:24.013Z,-0.52
2023-01-29T05:31:23.962Z,-0.52
2023-01-29T05:32:24.023Z,-0.54
2023-01-29T05:33:23.824Z,-0.56
2023-01-29T05:34:23.928Z,-0.58
2023-01-29T05:35:23.793Z,-0.59
2023-01-29T05:36:23.923Z,-0.59
2023-01-29T05:37:23.770Z,-0.60
2023-01-29T05:38:23.921Z,-0.60
2023-01-29T05:39:23.756Z,-0.61
2023-01-29T05:40:23.842Z,-0.61
2023-01-29T05:41:23.712Z,-0.61
2023-01-29T05:42:23.826Z,-0.61
2023-01-29T05:43:23.703Z,-0.63
2023-01-29T05:44:23.802Z,-0.66
2023-01-29T05:45:23.659Z,-0.68
2023-01-29T05:46:23.794Z,-0.70
2023-01-29T05:47:23.631Z,-0.72
2023-01-29T05:48:23.744Z,-0.74
2023-01-29T05:49:23.612Z,-0.75
2023-01-29T05:50:25.803Z,-0.75
2023-01-29T05:51:23.581Z,-0.76
2023-01-29T05:52:23.645Z,-0.77
2023-01-29T05:53:23.563Z,-0.78
2023-01-29T05:54:23.631Z,-0.79
2023-01-29T05:55:23.540Z,-0.79
2023-01-29T05:56:24.741Z,-0.80
2023-01-29T05:57:23.511Z,-0.82
2023-01-29T05:58:23.655Z,-0.84
2023-01-29T05:59:23.481Z,-0.85
2023-01-29T06:00:23.658Z,-0.87
2023-01-29T06:01:23.459Z,-0.88
2023-01-29T06:02:23.530Z,-0.89
2023-01-29T06:03:23.449Z,-0.91
2023-01-29T06:04:23.578Z,-0.93
2023-01-29T06:05:23.402Z,-0.95
2023-01-29T06:06:23.548Z,-0.95
2023-01-29T06:07:23.380Z,-0.96
2023-01-29T06:08:46.499Z,-0.98
2023-01-29T06:09:23.360Z,-1.01
2023-01-29T06:10:23.371Z,-1.03
2023-01-29T06:11:23.324Z,-1.06
2023-01-29T06:12:23.457Z,-1.10
2023-01-29T06:13:23.766Z,-1.13
2023-01-29T06:14:24.356Z,-1.16
2023-01-29T06:15:23.276Z,-1.17
2023-01-29T06:16:23.418Z,-1.18
2023-01-29T06:17:23.248Z,-1.18
2023-01-29T06:18:23.472Z,-1.19
2023-01-29T06:19:23.216Z,-1.21
2023-01-29T06:20:23.236Z,-1.23
2023-01-29T06:21:23.221Z,-1.24
2023-01-29T06:22:23.285Z,-1.26
2023-01-29T06:23:23.174Z,-1.27
2023-01-29T06:24:24.339Z,-1.29
2023-01-29T06:25:23.148Z,-1.30
2023-01-29T06:26:23.255Z,-1.30
2023-01-29T06:27:23.155Z,-1.30
2023-01-29T06:28:23.287Z,-1.28
2023-01-29T06:29:23.115Z,-1.26
2023-01-29T06:30:26.343Z,-1.24
2023-01-29T06:31:37.219Z,-1.22
2023-01-29T06:32:24.077Z,-1.21
2023-01-29T06:33:23.123Z,-1.21
2023-01-29T06:34:23.025Z,-1.20
2023-01-29T06:35:25.144Z,-1.19
2023-01-29T06:36:23.021Z,-1.19
2023-01-29T06:37:23.094Z,-1.19
2023-01-29T06:38:22.977Z,-1.18
2023-01-29T06:39:23.123Z,-1.18
2023-01-29T06:40:22.951Z,-1.16
2023-01-29T06:41:23.071Z,-1.13
2023-01-29T06:42:22.933Z,-1.13
2023-01-29T06:43:23.001Z,-1.13
2023-01-29T06:44:22.892Z,-1.14
2023-01-29T06:45:22.965Z,-1.15
2023-01-29T06:46:22.896Z,-1.15
2023-01-29T06:47:22.974Z,-1.15
2023-01-29T06:48:22.961Z,-1.17
2023-01-29T06:49:23.002Z,-1.20
2023-01-29T06:50:22.820Z,-1.23
2023-01-29T06:51:22.964Z,-1.26
2023-01-29T06:52:22.973Z,-1.27
2023-01-29T06:53:22.881Z,-1.29
2023-01-29T06:54:22.781Z,-1.31
2023-01-29T06:55:22.911Z,-1.30
2023-01-29T06:56:22.730Z,-1.28
2023-01-29T06:57:22.840Z,-1.28
2023-01-29T06:58:22.717Z,-1.29
2023-01-29T06:59:22.896Z,-1.30
2023-01-29T07:00:22.701Z,-1.32
2023-01-29T07:01:35.113Z,-1.33
2023-01-29T07:02:23.709Z,-1.36
2023-01-29T07:03:22.746Z,-1.38
2023-01-29T07:04:22.628Z,-1.40
2023-01-29T07:05:22.787Z,-1.40
2023-01-29T07:06:22.625Z,-1.36
2023-01-29T07:07:24.819Z,-1.33
2023-01-29T07:08:22.605Z,-1.33
2023-01-29T07:09:24.757Z,-1.32
2023-01-29T07:10:22.554Z,-1.30
2023-01-29T07:11:22.624Z,-1.29
2023-01-29T07:12:22.543Z,-1.29
2023-01-29T07:13:23.651Z,-1.29
2023-01-29T07:14:22.679Z,-1.31
2023-01-29T07:15:22.657Z,-1.30
2023-01-29T07:16:22.484Z,-1.31
2023-01-29T07:17:22.598Z,-1.33
2023-01-29T07:18:22.469Z,-1.34
2023-01-29T07:19:22.626Z,-1.34
2023-01-29T07:20:22.428Z,-1.35
2023-01-29T07:21:22.462Z,-1.35
2023-01-29T07:22:22.474Z,-1.36
2023-01-29T07:23:22.610Z,-1.39
2023-01-29T07:24:22.494Z,-1.42
2023-01-29T07:25:22.535Z,-1.44
2023-01-29T07:26:22.348Z,-1.46
2023-01-29T07:27:22.471Z,-1.47
2023-01-29T07:28:22.330Z,-1.45
2023-01-29T07:29:22.404Z,-1.47
2023-01-29T07:30:22.305Z,-1.50
2023-01-29T07:31:22.432Z,-1.53
2023-01-29T07:32:22.321Z,-1.56
2023-01-29T07:33:22.377Z,-1.58
2023-01-29T07:34:22.236Z,-1.58
2023-01-29T07:35:22.424Z,-1.58
2023-01-29T07:36:22.261Z,-1.57
2023-01-29T07:37:43.325Z,-1.57
2023-01-29T07:38:22.194Z,-1.56
2023-01-29T07:39:22.286Z,-1.55
2023-01-29T07:40:22.163Z,-1.54
2023-01-29T07:41:23.242Z,-1.55
2023-01-29T07:42:22.166Z,-1.55
2023-01-29T07:43:22.252Z,-1.55
2023-01-29T07:44:22.111Z,-1.56
2023-01-29T07:45:22.293Z,-1.57
2023-01-29T07:46:22.090Z,-1.58
2023-01-29T07:47:22.123Z,-1.59
2023-01-29T07:48:22.072Z,-1.59
2023-01-29T07:49:22.155Z,-1.56
2023-01-29T07:50:22.163Z,-1.54
2023-01-29T07:51:22.096Z,-1.55
2023-01-29T07:52:22.436Z,-1.55
2023-01-29T07:53:23.140Z,-1.56
2023-01-29T07:54:21.992Z,-1.58
2023-01-29T07:55:22.174Z,-1.59
2023-01-29T07:56:21.951Z,-1.60
2023-01-29T07:57:21.999Z,-1.61
2023-01-29T07:58:21.939Z,-1.62
2023-01-29T07:59:22.036Z,-1.63
2023-01-29T08:00:21.931Z,-1.63
2023-01-29T08:01:23.242Z,-1.66
2023-01-29T08:02:21.980Z,-1.68
2023-01-29T08:03:22.000Z,-1.68
2023-01-29T08:04:22.011Z,-1.68
2023-01-29T08:05:22.043Z,-1.66
2023-01-29T08:06:21.945Z,-1.65
2023-01-29T08:07:21.912Z,-1.65
2023-01-29T08:08:21.798Z,-1.65
2023-01-29T08:09:21.925Z,-1.64
2023-01-29T08:10:21.777Z,-1.64
2023-01-29T08:11:23.937Z,-1.64
2023-01-29T08:12:21.813Z,-1.63
2023-01-29T08:13:21.889Z,-1.59
2023-01-29T08:14:21.722Z,-1.56
2023-01-29T08:15:21.822Z,-1.53
2023-01-29T08:16:21.717Z,-1.50
2023-01-29T08:17:57.258Z,-1.48
2023-01-29T08:18:22.684Z,-1.47
2023-01-29T08:19:21.787Z,-1.45
2023-01-29T08:20:21.642Z,-1.43
2023-01-29T08:21:22.750Z,-1.41
2023-01-29T08:22:21.627Z,-1.40
2023-01-29T08:23:21.815Z,-1.39
2023-01-29T08:24:21.611Z,-1.38
2023-01-29T08:25:22.042Z,-1.38
2023-01-29T08:26:21.588Z,-1.39
2023-01-29T08:27:21.632Z,-1.41
2023-01-29T08:28:21.535Z,-1.43
2023-01-29T08:29:21.714Z,-1.43
2023-01-29T08:30:21.514Z,-1.43
2023-01-29T08:31:21.702Z,-1.44
2023-01-29T08:32:21.486Z,-1.45
2023-01-29T08:33:29.867Z,-1.47
2023-01-29T08:34:22.486Z,-1.47
2023-01-29T08:35:44.534Z,-1.47
2023-01-29T08:36:21.433Z,-1.44
2023-01-29T08:37:21.504Z,-1.41
2023-01-29T08:38:21.413Z,-1.40
2023-01-29T08:39:21.544Z,-1.38
2023-01-29T08:40:21.401Z,-1.36
2023-01-29T08:41:21.573Z,-1.35
2023-01-29T08:42:21.352Z,-1.34
2023-01-29T08:43:21.413Z,-1.32
2023-01-29T08:44:21.333Z,-1.31
2023-01-29T08:45:21.441Z,-1.29
2023-01-29T08:46:21.361Z,-1.27
2023-01-29T08:47:21.380Z,-1.25
2023-01-29T08:48:21.284Z,-1.22
2023-01-29T08:49:23.511Z,-1.21
2023-01-29T08:50:21.270Z,-1.20
2023-01-29T08:51:23.441Z,-1.18
2023-01-29T08:52:21.247Z,-1.16
2023-01-29T08:53:21.289Z,-1.14
2023-01-29T08:54:21.201Z,-1.14
2023-01-29T08:55:21.319Z,-1.16
2023-01-29T08:56:21.180Z,-1.16
2023-01-29T08:57:21.249Z,-1.17
2023-01-29T08:58:21.171Z,-1.18
2023-01-29T08:59:21.294Z,-1.19
2023-01-29T09:00:21.134Z,-1.18
2023-01-29T09:01:21.265Z,-1.18
2023-01-29T09:02:21.160Z,-1.18
2023-01-29T09:03:23.264Z,-1.17
2023-01-29T09:04:21.088Z,-1.16
2023-01-29T09:05:21.199Z,-1.15
2023-01-29T09:06:21.039Z,-1.15
2023-01-29T09:07:21.128Z,-1.14
2023-01-29T09:08:21.027Z,-1.13
2023-01-29T09:09:21.168Z,-1.11
2023-01-29T09:10:21.030Z,-1.10
2023-01-29T09:11:21.103Z,-1.08
2023-01-29T09:12:20.977Z,-1.07
2023-01-29T09:13:21.038Z,-1.07
2023-01-29T09:14:20.959Z,-1.08
2023-01-29T09:15:43.027Z,-1.09
2023-01-29T09:16:20.951Z,-1.10
2023-01-29T09:17:21.021Z,-1.09
2023-01-29T09:18:20.898Z,-1.07
2023-01-29T09:19:21.045Z,-1.05
2023-01-29T09:20:20.874Z,-1.02
2023-01-29T09:21:24.205Z,-1.01
2023-01-29T09:22:20.848Z,-1.02
2023-01-29T09:23:20.914Z,-1.02
2023-01-29T09:24:20.832Z,-1.01
2023-01-29T09:25:20.967Z,-1.00
2023-01-29T09:26:20.802Z,-1.00
2023-01-29T09:27:20.948Z,-0.99
2023-01-29T09:28:20.768Z,-0.97
2023-01-29T09:29:20.822Z,-0.96
2023-01-29T09:30:20.737Z,-0.95
2023-01-29T09:31:20.949Z,-0.94
2023-01-29T09:32:49.690Z,-0.93
2023-01-29T09:33:21.714Z,-0.91
2023-01-29T09:34:20.756Z,-0.91
2023-01-29T09:35:20.681Z,-0.91
2023-01-29T09:36:20.794Z,-0.90
2023-01-29T09:37:21.135Z,-0.90
2023-01-29T09:38:20.748Z,-0.88
2023-01-29T09:39:20.636Z,-0.85
2023-01-29T09:40:20.767Z,-0.83
2023-01-29T09:41:20.609Z,-0.82
2023-01-29T09:42:20.701Z,-0.83
2023-01-29T09:43:20.564Z,-0.83
2023-01-29T09:44:21.661Z,-0.85
2023-01-29T09:45:20.589Z,-0.87
2023-01-29T09:46:20.772Z,-0.89
2023-01-29T09:47:20.515Z,-0.90
2023-01-29T09:48:20.610Z,-0.89
2023-01-29T09:49:20.500Z,-0.89
2023-01-29T09:50:21.675Z,-0.89
2023-01-29T09:51:20.480Z,-0.88
2023-01-29T09:52:20.472Z,-0.88
2023-01-29T09:53:20.444Z,-0.88
2023-01-29T09:54:20.510Z,-0.87
2023-01-29T09:55:20.415Z,-0.85
2023-01-29T09:56:41.476Z,-0.81
2023-01-29T09:57:20.388Z,-0.75
2023-01-29T09:58:20.495Z,-0.70
2023-01-29T09:59:20.353Z,-0.67
2023-01-29T10:00:22.513Z,-0.66
2023-01-29T10:01:20.408Z,-0.64
2023-01-29T10:02:23.592Z,-0.64
2023-01-29T10:03:20.311Z,-0.62
2023-01-29T10:04:41.423Z,-0.62
2023-01-29T10:05:20.522Z,-0.62
2023-01-29T10:06:20.434Z,-0.62
2023-01-29T10:07:20.279Z,-0.61
2023-01-29T10:08:21.378Z,-0.61
2023-01-29T10:09:20.229Z,-0.59
2023-01-29T10:10:20.399Z,-0.58
2023-01-29T10:11:20.197Z,-0.57
2023-01-29T10:12:20.230Z,-0.53
2023-01-29T10:13:20.188Z,-0.47
2023-01-29T10:15:29.668Z,-0.82
2023-01-29T10:16:29.443Z,-0.82
2023-01-29T10:17:29.482Z,-0.56
2023-01-29T10:18:29.422Z,-0.40
2023-01-29T10:19:50.482Z,-0.28
2023-01-29T10:20:29.382Z,-0.19
2023-01-29T10:21:30.470Z,-0.11
2023-01-29T10:22:29.355Z,-0.04
2023-01-29T10:23:29.491Z,0.00
2023-01-29T10:24:29.348Z,0.02
2023-01-29T10:25:29.414Z,0.05
2023-01-29T10:26:29.326Z,0.07
2023-01-29T10:27:29.350Z,0.05
2023-01-29T10:28:29.306Z,0.03
2023-01-29T10:29:29.389Z,-0.01
2023-01-29T10:30:29.274Z,-0.01
2023-01-29T10:31:30.434Z,0.00
2023-01-29T10:32:29.238Z,-0.02
2023-01-29T10:33:33.027Z,-0.04
2023-01-29T10:34:30.200Z,-0.02
2023-01-29T10:35:29.292Z,-0.02
2023-01-29T10:36:29.193Z,0.01
2023-01-29T10:37:29.227Z,0.02
2023-01-29T10:38:29.148Z,0.01
2023-01-29T10:39:31.357Z,0.00
2023-01-29T10:40:29.131Z,-0.02
2023-01-29T10:41:29.299Z,-0.01
2023-01-29T10:42:29.109Z,0.01
2023-01-29T10:43:29.253Z,0.00
2023-01-29T10:44:29.069Z,0.02
2023-01-29T10:45:29.170Z,0.01
2023-01-29T10:46:29.057Z,-0.01
2023-01-29T10:47:30.392Z,-0.04
2023-01-29T10:48:29.045Z,-0.05
2023-01-29T10:49:29.147Z,-0.06
2023-01-29T10:50:28.993Z,-0.08
2023-01-29T10:51:29.177Z,-0.07
2023-01-29T10:52:28.982Z,-0.08
2023-01-29T10:53:29.023Z,-0.07
2023-01-29T10:54:28.984Z,-0.08
2023-01-29T10:55:29.047Z,-0.08
2023-01-29T10:56:28.920Z,-0.05
2023-01-29T10:57:28.982Z,-0.02
2023-01-29T10:58:28.893Z,-0.02
2023-01-29T10:59:29.016Z,0.00
2023-01-29T11:00:28.876Z,0.03
2023-01-29T11:01:29.084Z,0.05
2023-01-29T11:02:28.864Z,0.05
2023-01-29T11:03:29.453Z,0.05
2023-01-29T11:04:28.811Z,0.06
2023-01-29T11:05:50.874Z,0.06
2023-01-29T11:06:28.800Z,0.03
2023-01-29T11:07:28.855Z,0.01
2023-01-29T11:08:28.756Z,-0.03
2023-01-29T11:09:28.899Z,-0.06
2023-01-29T11:10:28.724Z,-0.06
2023-01-29T11:11:32.056Z,-0.06
2023-01-29T11:12:28.724Z,-0.02
2023-01-29T11:13:28.766Z,-0.01
2023-01-29T11:14:28.684Z,0.00
2023-01-29T11:15:28.793Z,0.01
2023-01-29T11:16:28.662Z,0.02
2023-01-29T11:17:30.833Z,0.05
2023-01-29T11:18:28.640Z,0.07
2023-01-29T11:19:51.949Z,0.09
2023-01-29T11:20:28.603Z,0.10
2023-01-29T11:21:28.600Z,0.13
2023-01-29T11:22:28.687Z,0.15
2023-01-29T11:23:28.598Z,0.15
2023-01-29T11:24:29.737Z,0.15
2023-01-29T11:25:28.537Z,0.14
2023-01-29T11:26:28.673Z,0.12
2023-01-29T11:27:28.513Z,0.11
2023-01-29T11:28:28.571Z,0.07
2023-01-29T11:29:28.788Z,0.06
2023-01-29T11:30:50.678Z,0.03
2023-01-29T11:31:28.550Z,0.02
2023-01-29T11:32:28.652Z,0.02
2023-01-29T11:33:28.464Z,0.03
2023-01-29T11:34:28.495Z,0.03
2023-01-29T11:35:28.432Z,0.03
2023-01-29T11:36:29.440Z,0.02
2023-01-29T11:37:28.382Z,0.03
2023-01-29T11:38:28.464Z,0.08
2023-01-29T11:39:28.351Z,0.13
2023-01-29T11:40:28.488Z,0.17
2023-01-29T11:41:28.351Z,0.18
2023-01-29T11:42:28.528Z,0.18
2023-01-29T11:43:28.309Z,0.18
2023-01-29T11:44:28.359Z,0.20
2023-01-29T11:45:28.269Z,0.20
2023-01-29T11:46:28.500Z,0.19
2023-01-29T11:47:28.281Z,0.18
2023-01-29T11:48:49.308Z,0.18
2023-01-29T11:49:28.239Z,0.22
2023-01-29T11:50:28.382Z,0.26
2023-01-29T11:51:28.207Z,0.26
2023-01-29T11:52:28.409Z,0.28
2023-01-29T11:53:28.207Z,0.30
2023-01-29T11:54:28.243Z,0.32
2023-01-29T11:55:29.653Z,0.32
2023-01-29T11:56:28.141Z,0.34
2023-01-29T11:57:28.338Z,0.36
2023-01-29T11:58:28.107Z,0.39
2023-01-29T11:59:28.232Z,0.43
2023-01-29T12:00:28.080Z,0.52
2023-01-29T12:01:28.216Z,0.64
2023-01-29T12:02:28.078Z,0.77
2023-01-29T12:03:28.203Z,0.90
2023-01-29T12:04:28.040Z,1.01
2023-01-29T12:05:28.247Z,1.11
2023-01-29T12:06:27.997Z,1.20
2023-01-29T12:07:28.120Z,1.29
2023-01-29T12:08:27.977Z,1.33
2023-01-29T12:09:28.068Z,1.36
2023-01-29T12:10:27.946Z,1.35
2023-01-29T12:11:28.047Z,1.34
2023-01-29T12:12:28.064Z,1.34
2023-01-29T12:13:28.029Z,1.30
2023-01-29T12:14:27.916Z,1.30
2023-01-29T12:15:28.064Z,1.27
2023-01-29T12:16:27.977Z,1.24
2023-01-29T12:17:27.944Z,1.23
2023-01-29T12:18:27.844Z,1.24
2023-01-29T12:19:27.925Z,1.28
2023-01-29T12:20:27.827Z,1.35
2023-01-29T12:21:27.968Z,1.41
2023-01-29T12:22:27.794Z,1.43
2023-01-29T12:23:31.126Z,1.46
2023-01-29T12:24:27.775Z,1.45
2023-01-29T12:25:27.839Z,1.45
2023-01-29T12:26:27.799Z,1.44
2023-01-29T12:27:27.879Z,1.45
2023-01-29T12:28:27.711Z,1.49
2023-01-29T12:29:27.868Z,1.48
2023-01-29T12:30:27.721Z,1.48
2023-01-29T12:31:27.895Z,1.47
2023-01-29T12:32:27.669Z,1.48
2023-01-29T12:33:27.782Z,1.48
2023-01-29T12:34:27.647Z,1.48
2023-01-29T12:35:27.753Z,1.51
2023-01-29T12:36:27.615Z,1.54
2023-01-29T12:37:27.748Z,1.58
2023-01-29T12:38:27.584Z,1.57
2023-01-29T12:39:28.701Z,1.57
2023-01-29T12:40:27.569Z,1.59
2023-01-29T12:41:27.772Z,1.60
2023-01-29T12:42:27.561Z,1.58
2023-01-29T12:43:27.653Z,1.56
2023-01-29T12:44:27.512Z,1.56
2023-01-29T12:45:27.581Z,1.61
2023-01-29T12:46:27.507Z,1.67
2023-01-29T12:47:27.572Z,1.70
2023-01-29T12:48:27.461Z,1.67
2023-01-29T12:49:27.550Z,1.60
2023-01-29T12:50:27.429Z,1.54
2023-01-29T12:51:28.619Z,1.47
2023-01-29T12:52:27.412Z,1.37
2023-01-29T12:53:27.491Z,1.28
2023-01-29T12:54:27.390Z,1.22
2023-01-29T12:55:27.463Z,1.19
2023-01-29T12:56:27.361Z,1.17
2023-01-29T12:57:28.419Z,1.13
2023-01-29T12:58:27.334Z,1.07
2023-01-29T12:59:29.222Z,1.03
2023-01-29T13:00:27.313Z,1.02
2023-01-29T13:01:27.470Z,1.03
2023-01-29T13:02:27.281Z,1.07
2023-01-29T13:03:27.556Z,1.07
2023-01-29T13:04:27.286Z,1.05
2023-01-29T13:05:27.389Z,1.03
2023-01-29T13:06:27.228Z,1.04